createdAt,value
2023-05-06T00:02:52.200Z,1.76
2023-05-06T00:08:15.305Z,1.58
2023-05-06T00:13:37.628Z,1.44
2023-05-06T00:19:18.383Z,1.77
2023-05-06T00:24:42.427Z,1.99
2023-05-06T00:30:05.004Z,1.51
2023-05-06T00:35:29.543Z,1.51
2023-05-06T00:40:55.123Z,1.71
2023-05-06T00:46:19.918Z,1.45
2023-05-06T00:51:45.328Z,1.42
2023-05-06T00:57:06.710Z,1.31
2023-05-06T01:02:39.668Z,1.28
2023-05-06T01:07:52.980Z,1.13
2023-05-06T01:13:14.230Z,1.56
2023-05-06T01:18:55.227Z,1.46
2023-05-06T01:25:08.930Z,1.48
2023-05-06T01:30:31.394Z,1.26
2023-05-06T01:35:56.955Z,0.94
2023-05-06T01:41:23.803Z,1.26
2023-05-06T01:46:48.423Z,1.34
2023-05-06T01:52:06.000Z,1.33
2023-05-06T01:57:26.989Z,1.31
2023-05-06T02:02:48.254Z,1.05
2023-05-06T02:08:12.691Z,1.44
2023-05-06T02:13:35.562Z,1.45
2023-05-06T02:19:42.314Z,1.60
2023-05-06T02:25:01.455Z,1.87
2023-05-06T02:30:27.669Z,1.65
2023-05-06T02:35:50.766Z,1.50
2023-05-06T02:41:13.418Z,1.67
2023-05-06T02:46:38.687Z,1.52
2023-05-06T02:52:03.418Z,1.41
2023-05-06T02:57:26.755Z,1.41
2023-05-06T03:03:14.973Z,1.54
2023-05-06T03:08:37.886Z,1.21
2023-05-06T03:14:01.070Z,1.30
2023-05-06T03:19:25.254Z,1.64
2023-05-06T03:25:01.782Z,1.39
2023-05-06T03:30:26.150Z,1.04
2023-05-06T03:35:49.413Z,0.94
2023-05-06T03:41:15.059Z,1.26
2023-05-06T03:46:52.719Z,1.37
2023-05-06T03:52:16.164Z,1.31
2023-05-06T03:57:40.792Z,1.27
2023-05-06T04:03:04.506Z,1.03
2023-05-06T04:08:28.944Z,0.99
2023-05-06T04:13:52.795Z,0.98
2023-05-06T04:19:14.918Z,1.04
2023-05-06T04:24:39.306Z,1.10
2023-05-06T04:30:00.731Z,1.43
2023-05-06T04:35:24.113Z,1.34
2023-05-06T04:40:47.019Z,0.86
2023-05-06T04:46:08.661Z,0.86
2023-05-06T04:51:26.563Z,1.08
2023-05-06T04:56:44.226Z,1.13
2023-05-06T05:02:06.397Z,1.15
2023-05-06T05:07:28.304Z,0.80
2023-05-06T05:12:48.489Z,0.95
2023-05-06T05:18:11.199Z,0.90
2023-05-06T05:23:32.927Z,1.10
2023-05-06T05:28:58.001Z,1.08
2023-05-06T05:34:22.421Z,1.22
2023-05-06T05:39:44.197Z,1.32
2023-05-06T05:45:08.273Z,1.20
2023-05-06T05:50:31.878Z,0.86
2023-05-06T05:55:56.829Z,1.13
2023-05-06T06:01:23.559Z,1.21
2023-05-06T06:06:47.362Z,1.47
2023-05-06T06:12:11.951Z,1.87
2023-05-06T06:17:34.381Z,2.24
2023-05-06T06:22:59.509Z,2.09
2023-05-06T06:28:23.499Z,1.91
2023-05-06T06:33:47.292Z,2.42
2023-05-06T06:39:07.350Z,2.69
2023-05-06T06:44:29.137Z,2.22
2023-05-06T06:49:53.870Z,2.30
2023-05-06T06:55:14.987Z,2.23
2023-05-06T07:00:40.564Z,2.13
2023-05-06T07:06:03.983Z,2.30
2023-05-06T07:11:28.977Z,2.16
2023-05-06T07:16:51.581Z,2.59
2023-05-06T07:22:13.592Z,2.42
2023-05-06T07:27:34.089Z,1.89
2023-05-06T07:32:59.864Z,2.43
2023-05-06T07:38:23.203Z,1.99
2023-05-06T07:43:46.083Z,2.24
2023-05-06T07:49:10.989Z,2.16
2023-05-06T07:54:29.020Z,1.99
2023-05-06T07:59:49.064Z,1.69
2023-05-06T08:05:11.467Z,1.75
2023-05-06T08:10:35.683Z,1.93
2023-05-06T08:16:00.460Z,1.97
2023-05-06T08:21:25.797Z,1.59
2023-05-06T08:26:47.997Z,1.86
2023-05-06T08:32:11.187Z,1.79
2023-05-06T08:37:36.591Z,1.33
2023-05-06T08:43:01.693Z,1.67
2023-05-06T08:48:26.316Z,1.86
2023-05-06T08:53:49.273Z,1.49
2023-05-06T08:59:13.079Z,1.24
2023-05-06T09:04:38.400Z,1.31
2023-05-06T09:10:00.843Z,0.34
2023-05-06T09:15:29.118Z,0.92
2023-05-06T09:21:00.150Z,0.34
2023-05-06T09:26:19.214Z,0.19
2023-05-06T09:31:41.292Z,0.34
2023-05-06T09:37:05.291Z,0.78
2023-05-06T09:42:26.431Z,0.28
2023-05-06T09:47:48.455Z,0.28
2023-05-06T09:53:11.337Z,0.32
2023-05-06T09:58:30.051Z,0.66
2023-05-06T10:03:51.382Z,0.48
2023-05-06T10:09:12.721Z,0.53
2023-05-06T10:14:33.927Z,0.55
2023-05-06T10:19:54.397Z,0.49
2023-05-06T10:25:13.910Z,0.53
2023-05-06T10:30:34.171Z,0.49
2023-05-06T10:35:52.662Z,0.61
2023-05-06T10:41:11.470Z,0.33
2023-05-06T10:46:29.192Z,0.27
2023-05-06T10:51:47.381Z,0.27
2023-05-06T10:57:18.515Z,0.52
2023-05-06T11:02:39.675Z,0.35
2023-05-06T11:08:03.960Z,0.29
2023-05-06T11:13:26.545Z,0.29
2023-05-06T11:18:52.536Z,0.30
2023-05-06T11:24:16.870Z,0.29
2023-05-06T11:29:43.354Z,0.53
2023-05-06T11:35:06.693Z,0.64
2023-05-06T11:40:29.056Z,0.55
2023-05-06T11:45:54.295Z,0.63
2023-05-06T11:51:18.855Z,0.52
2023-05-06T11:56:37.713Z,0.60
2023-05-06T12:02:03.527Z,0.73
2023-05-06T12:07:27.501Z,0.96
2023-05-06T12:12:52.011Z,0.65
2023-05-06T12:18:13.132Z,0.69
2023-05-06T12:23:35.439Z,0.72
2023-05-06T12:29:04.884Z,1.01
2023-05-06T12:34:24.797Z,0.79
2023-05-06T12:40:08.978Z,1.16
2023-05-06T12:45:36.437Z,0.93
2023-05-06T12:51:15.507Z,1.03
2023-05-06T12:56:38.890Z,0.96
2023-05-06T13:02:03.460Z,0.78
2023-05-06T13:07:28.973Z,0.79
2023-05-06T13:12:52.092Z,0.62
2023-05-06T13:18:17.673Z,0.66
2023-05-06T13:24:32.653Z,0.84
2023-05-06T13:29:56.125Z,0.49
2023-05-06T13:35:18.608Z,0.26
2023-05-06T13:40:43.686Z,0.48
2023-05-06T13:46:02.510Z,0.61
2023-05-06T13:51:22.773Z,0.84
2023-05-06T13:56:46.076Z,0.54
2023-05-06T14:02:09.669Z,0.46
2023-05-06T14:07:48.888Z,0.83
2023-05-06T14:13:12.676Z,0.51
2023-05-06T14:19:00.084Z,0.65
2023-05-06T14:24:38.996Z,0.60
2023-05-06T14:30:00.457Z,0.70
2023-05-06T14:35:24.151Z,0.51
2023-05-06T14:40:48.068Z,0.67
2023-05-06T14:46:13.469Z,0.73
2023-05-06T14:51:37.719Z,0.57
2023-05-06T14:57:01.959Z,0.50
2023-05-06T15:02:23.655Z,0.45
2023-05-06T15:08:09.576Z,0.56
2023-05-06T15:13:26.034Z,0.57
2023-05-06T15:18:49.734Z,0.53
2023-05-06T15:24:13.542Z,0.56
2023-05-06T15:29:36.589Z,0.62
2023-05-06T15:35:01.679Z,0.59
2023-05-06T15:40:25.317Z,0.44
2023-05-06T15:45:50.766Z,0.45
2023-05-06T15:51:15.721Z,0.34
2023-05-06T15:56:41.606Z,0.49
2023-05-06T16:07:24.915Z,0.52
2023-05-06T16:12:49.138Z,0.58
2023-05-06T16:18:13.509Z,0.72
2023-05-06T16:23:34.156Z,0.66
2023-05-06T16:28:58.819Z,0.61
2023-05-06T16:34:46.415Z,1.58
2023-05-06T16:40:07.235Z,0.95
2023-05-06T16:45:27.297Z,0.73
2023-05-06T16:50:46.603Z,0.64
2023-05-06T16:56:07.837Z,0.55
2023-05-06T17:01:32.946Z,0.64
2023-05-06T17:06:57.163Z,0.37
2023-05-06T17:12:21.056Z,0.61
2023-05-06T17:17:42.888Z,0.57
2023-05-06T17:23:06.170Z,0.53
2023-05-06T17:28:28.731Z,0.82
2023-05-06T17:33:53.780Z,0.70
2023-05-06T17:39:17.956Z,0.58
2023-05-06T17:44:41.219Z,0.58
2023-05-06T17:50:03.365Z,0.57
2023-05-06T17:56:05.219Z,0.60
2023-05-06T18:01:24.506Z,0.56
2023-05-06T18:06:47.411Z,0.45
2023-05-06T18:12:12.481Z,0.62
2023-05-06T18:17:37.756Z,0.59
2023-05-06T18:23:01.018Z,0.42
2023-05-06T18:28:42.557Z,0.51
2023-05-06T18:34:06.641Z,0.86
2023-05-06T18:39:32.098Z,0.54
2023-05-06T18:44:59.849Z,0.78
2023-05-06T18:50:53.589Z,0.72
2023-05-06T18:56:51.741Z,0.83
2023-05-06T19:02:13.259Z,0.60
2023-05-06T19:07:36.013Z,0.57
2023-05-06T19:27:33.238Z,0.76
2023-05-06T19:32:51.057Z,0.76
2023-05-06T19:38:12.980Z,0.71
2023-05-06T19:43:33.200Z,0.68
2023-05-06T19:48:55.276Z,0.68
2023-05-06T19:54:20.075Z,0.64
2023-05-06T19:59:42.877Z,0.76
2023-05-06T20:05:07.029Z,0.81
2023-05-06T20:10:25.086Z,0.71
2023-05-06T20:15:44.298Z,0.81
2023-05-06T20:21:06.523Z,0.75
2023-05-06T20:26:27.980Z,0.70
2023-05-06T20:31:46.686Z,0.64
2023-05-06T20:37:11.721Z,0.58
2023-05-06T20:42:31.635Z,0.97
2023-05-06T20:47:55.339Z,0.59
2023-05-06T20:53:18.080Z,0.59
2023-05-06T20:58:54.737Z,0.67
2023-05-06T21:04:17.703Z,0.70
2023-05-06T21:09:40.535Z,0.73
2023-05-06T21:15:03.036Z,0.55
2023-05-06T21:20:29.323Z,0.41
2023-05-06T21:25:50.560Z,0.46
2023-05-06T21:31:15.933Z,0.52
2023-05-06T21:36:39.135Z,0.52
2023-05-06T21:42:04.180Z,0.40
2023-05-06T21:47:47.623Z,0.74
2023-05-06T21:53:09.731Z,0.40
2023-05-06T21:58:34.811Z,0.62
2023-05-06T22:03:58.214Z,0.44
2023-05-06T22:09:21.087Z,0.43
2023-05-06T22:15:09.526Z,0.52
2023-05-06T22:20:31.077Z,0.61
2023-05-06T22:25:52.555Z,0.68
2023-05-06T22:31:10.403Z,0.53
2023-05-06T22:36:31.709Z,0.38
2023-05-06T22:41:55.435Z,0.43
2023-05-06T22:47:40.968Z,0.61
2023-05-06T22:53:13.636Z,0.46
2023-05-06T22:58:28.471Z,0.54
2023-05-06T23:03:53.150Z,0.47
2023-05-06T23:09:18.039Z,0.44
2023-05-06T23:14:43.439Z,0.45
2023-05-06T23:20:01.282Z,0.48
2023-05-06T23:25:26.319Z,0.48
2023-05-06T23:31:24.422Z,0.65
2023-05-06T23:36:44.816Z,0.55
2023-05-06T23:42:09.944Z,0.56
2023-05-06T23:47:33.321Z,0.46
2023-05-06T23:52:58.534Z,0.71
2023-05-06T23:58:22.698Z,0.60
